createdAt,value
2022-11-12T00:00:41.154Z,13.45
2022-11-12T00:03:11.048Z,14.38
2022-11-12T00:05:43.497Z,13.82
2022-11-12T00:08:13.309Z,14.35
2022-11-12T00:10:43.048Z,13.70
2022-11-12T00:13:12.920Z,13.82
2022-11-12T00:15:42.972Z,13.75
2022-11-12T00:18:12.972Z,14.18
2022-11-12T00:20:45.367Z,13.63
2022-11-12T00:23:15.281Z,13.05
2022-11-12T00:25:45.135Z,13.88
2022-11-12T00:28:14.918Z,12.63
2022-11-12T00:30:44.690Z,14.15
2022-11-12T00:33:14.431Z,14.32
2022-11-12T00:35:48.210Z,14.25
2022-11-12T00:38:17.980Z,12.80
2022-11-12T00:40:47.723Z,13.65
2022-11-12T00:43:17.522Z,13.80
2022-11-12T00:45:47.288Z,14.25
2022-11-12T00:48:17.146Z,15.02
2022-11-12T00:50:49.504Z,13.80
2022-11-12T00:53:19.300Z,14.13
2022-11-12T00:55:49.077Z,13.98
2022-11-12T00:58:18.854Z,14.25
2022-11-12T01:00:48.691Z,14.35
2022-11-12T01:03:18.546Z,14.75
2022-11-12T01:05:50.900Z,15.85
2022-11-12T01:08:20.667Z,15.40
2022-11-12T01:10:50.515Z,15.18
2022-11-12T01:13:20.255Z,14.75
2022-11-12T01:15:50.026Z,19.90
2022-11-12T01:18:19.835Z,16.50
2022-11-12T01:20:52.152Z,17.48
2022-11-12T01:23:21.895Z,15.90
2022-11-12T01:25:51.715Z,15.27
2022-11-12T01:28:21.473Z,15.15
2022-11-12T01:30:51.257Z,15.88
2022-11-12T01:33:21.023Z,16.42
2022-11-12T01:35:53.413Z,17.38
2022-11-12T01:38:23.447Z,15.10
2022-11-12T01:40:53.536Z,15.95
2022-11-12T01:43:23.333Z,16.70
2022-11-12T01:45:53.923Z,17.08
2022-11-12T01:48:29.245Z,16.13
2022-11-12T01:51:01.997Z,15.50
2022-11-12T01:53:36.840Z,15.43
2022-11-12T01:56:08.502Z,15.85
2022-11-12T01:58:41.287Z,16.08
2022-11-12T02:01:11.158Z,17.55
2022-11-12T02:03:40.973Z,14.75
2022-11-12T02:06:16.920Z,16.27
2022-11-12T02:08:49.442Z,15.10
2022-11-12T02:11:20.908Z,16.20
2022-11-12T02:14:05.040Z,14.90
2022-11-12T02:16:37.650Z,15.07
2022-11-12T02:19:09.040Z,16.52
2022-11-12T02:21:41.838Z,16.88
2022-11-12T02:24:37.091Z,16.35
2022-11-12T02:29:46.295Z,16.10
2022-11-12T02:32:16.635Z,15.02
2022-11-12T02:34:46.362Z,14.88
2022-11-12T02:37:18.718Z,15.20
2022-11-12T02:39:48.530Z,15.10
2022-11-12T02:42:18.314Z,15.70
2022-11-12T02:44:48.146Z,15.10
2022-11-12T02:47:17.891Z,14.57
2022-11-12T02:49:47.883Z,14.63
2022-11-12T02:52:20.229Z,13.68
2022-11-12T02:54:50.063Z,15.55
2022-11-12T02:57:19.910Z,14.82
2022-11-12T02:59:49.671Z,15.82
2022-11-12T03:02:19.445Z,16.30
2022-11-12T03:04:49.720Z,15.30
2022-11-12T03:07:22.213Z,15.43
2022-11-12T03:09:52.022Z,15.60
2022-11-12T03:12:21.933Z,16.30
2022-11-12T03:14:51.689Z,17.05
2022-11-12T03:17:21.530Z,16.83
2022-11-12T03:19:51.334Z,16.73
2022-11-12T03:22:26.966Z,16.38
2022-11-12T03:24:56.763Z,17.23
2022-11-12T03:27:26.558Z,16.13
2022-11-12T03:29:56.371Z,16.10
2022-11-12T03:32:26.261Z,15.60
2022-11-12T03:34:56.016Z,17.65
2022-11-12T03:37:28.366Z,16.17
2022-11-12T03:39:58.105Z,15.55
2022-11-12T03:42:27.861Z,14.50
2022-11-12T03:44:57.614Z,14.57
2022-11-12T03:47:27.492Z,15.20
2022-11-12T03:49:57.438Z,14.65
2022-11-12T03:52:29.784Z,14.98
2022-11-12T03:54:59.631Z,13.75
2022-11-12T03:57:29.433Z,14.13
2022-11-12T03:59:59.224Z,13.55
2022-11-12T04:02:30.187Z,13.60
2022-11-12T04:05:12.503Z,13.40
2022-11-12T04:07:57.493Z,12.80
2022-11-12T04:13:23.457Z,12.85
2022-11-12T04:16:13.271Z,13.77
2022-11-12T04:18:55.644Z,12.85
2022-11-12T04:21:45.173Z,11.40
2022-11-12T04:24:29.871Z,11.13
2022-11-12T04:26:59.653Z,10.98
2022-11-12T04:29:42.183Z,10.38
2022-11-12T04:32:12.095Z,10.60
2022-11-12T04:34:42.122Z,9.95
2022-11-12T04:37:12.268Z,10.52
2022-11-12T04:39:44.633Z,11.38
2022-11-12T04:42:41.813Z,10.05
2022-11-12T04:45:13.284Z,11.40
2022-11-12T04:47:44.280Z,11.85
2022-11-12T04:50:18.424Z,12.68
2022-11-12T04:52:48.280Z,12.35
2022-11-12T04:55:20.802Z,11.15
2022-11-12T04:57:50.919Z,11.15
2022-11-12T05:00:22.067Z,11.60
2022-11-12T05:02:52.629Z,11.35
2022-11-12T05:05:22.473Z,11.60
2022-11-12T05:07:52.279Z,10.77
2022-11-12T05:10:24.607Z,11.00
2022-11-12T05:12:54.434Z,11.27
2022-11-12T05:15:24.354Z,10.77
2022-11-12T05:17:54.210Z,10.75
2022-11-12T05:20:23.994Z,11.02
2022-11-12T05:23:06.182Z,11.35
2022-11-12T05:25:40.064Z,9.98
2022-11-12T05:28:09.840Z,10.40
2022-11-12T05:30:39.597Z,10.35
2022-11-12T05:33:09.395Z,10.68
2022-11-12T05:35:39.157Z,11.13
2022-11-12T05:38:08.897Z,9.60
2022-11-12T05:40:41.298Z,10.07
2022-11-12T05:43:11.138Z,8.80
2022-11-12T05:45:40.927Z,8.63
2022-11-12T05:48:10.843Z,8.18
2022-11-12T05:51:06.144Z,8.85
2022-11-12T05:53:30.564Z,9.20
2022-11-12T05:56:07.241Z,8.48
2022-11-12T05:58:38.018Z,9.40
2022-11-12T06:01:08.283Z,7.93
2022-11-12T06:03:38.023Z,8.75
2022-11-12T06:06:08.134Z,8.82
2022-11-12T06:08:38.090Z,7.95
2022-11-12T06:11:10.567Z,8.25
2022-11-12T06:13:40.436Z,8.20
2022-11-12T06:16:11.193Z,8.20
2022-11-12T06:18:40.959Z,8.30
2022-11-12T06:21:28.027Z,8.65
2022-11-12T06:24:00.866Z,8.80
2022-11-12T06:26:33.260Z,8.32
2022-11-12T06:29:03.051Z,8.98
2022-11-12T06:31:32.825Z,9.25
2022-11-12T06:34:03.283Z,10.13
2022-11-12T06:36:33.186Z,10.00
2022-11-12T06:39:02.970Z,9.27
2022-11-12T06:41:35.304Z,10.23
2022-11-12T06:44:06.862Z,9.57
2022-11-12T06:46:36.762Z,9.73
2022-11-12T06:49:06.657Z,9.38
2022-11-12T06:51:39.714Z,9.80
2022-11-12T06:54:09.673Z,10.30
2022-11-12T06:56:42.072Z,10.52
2022-11-12T06:59:11.954Z,10.73
2022-11-12T07:01:41.840Z,11.27
2022-11-12T07:04:11.653Z,11.73
2022-11-12T07:06:41.832Z,12.77
2022-11-12T07:09:11.911Z,13.93
2022-11-12T07:11:44.391Z,12.85
2022-11-12T07:14:14.282Z,13.38
2022-11-12T07:16:44.223Z,12.68
2022-11-12T07:19:13.979Z,12.43
2022-11-12T07:21:43.743Z,12.65
2022-11-12T07:24:15.085Z,11.65
2022-11-12T07:26:47.882Z,12.40
2022-11-12T07:29:35.649Z,12.75
2022-11-12T07:32:08.059Z,12.13
2022-11-12T07:34:37.816Z,11.27
2022-11-12T07:37:07.569Z,10.55
2022-11-12T07:39:37.329Z,10.68
2022-11-12T07:42:09.780Z,10.63
2022-11-12T07:44:39.508Z,11.40
2022-11-12T07:47:09.328Z,9.93
2022-11-12T07:49:39.110Z,9.40
2022-11-12T07:52:08.978Z,9.40
2022-11-12T07:54:38.745Z,9.25
2022-11-12T07:57:11.076Z,9.23
2022-11-12T07:59:45.862Z,8.23
2022-11-12T08:02:16.195Z,8.27
2022-11-12T08:04:45.995Z,8.93
2022-11-12T08:07:15.821Z,8.82
2022-11-12T08:09:45.713Z,8.43
2022-11-12T08:12:18.154Z,8.23
2022-11-12T08:14:47.995Z,8.95
2022-11-12T08:17:17.750Z,8.38
2022-11-12T08:19:47.533Z,7.85
2022-11-12T08:22:17.298Z,8.00
2022-11-12T08:24:47.057Z,7.47
2022-11-12T08:27:19.419Z,8.02
2022-11-12T08:29:49.184Z,7.93
2022-11-12T08:32:19.117Z,7.40
2022-11-12T08:34:49.026Z,7.57
2022-11-12T08:37:19.386Z,7.55
2022-11-12T08:39:49.227Z,7.13
2022-11-12T08:42:21.625Z,7.30
2022-11-12T08:44:51.502Z,6.82
2022-11-12T08:47:21.266Z,7.05
2022-11-12T08:49:51.052Z,6.85
2022-11-12T08:52:20.969Z,6.70
2022-11-12T08:54:50.710Z,7.03
2022-11-12T08:57:23.120Z,6.78
2022-11-12T08:59:52.935Z,7.18
2022-11-12T09:02:22.712Z,6.32
2022-11-12T09:04:52.466Z,7.10
2022-11-12T09:07:48.348Z,6.53
2022-11-12T09:10:12.396Z,6.00
2022-11-12T09:12:44.848Z,6.07
2022-11-12T09:18:06.260Z,5.72
2022-11-12T09:20:36.391Z,5.88
2022-11-12T09:23:08.237Z,5.82
2022-11-12T09:25:38.490Z,5.93
2022-11-12T09:28:16.459Z,6.35
2022-11-12T09:30:48.783Z,6.32
2022-11-12T09:33:20.145Z,5.57
2022-11-12T09:35:50.474Z,5.45
2022-11-12T09:38:22.196Z,6.15
2022-11-12T09:41:27.635Z,5.75
2022-11-12T09:44:02.862Z,5.82
2022-11-12T09:46:40.866Z,5.60
2022-11-12T09:49:17.462Z,5.63
2022-11-12T09:51:53.436Z,5.28
2022-11-12T09:54:27.142Z,5.70
2022-11-12T09:56:57.596Z,5.93
2022-11-12T09:59:35.086Z,5.75
2022-11-12T10:02:15.778Z,5.90
2022-11-12T10:05:05.902Z,5.80
2022-11-12T10:07:46.523Z,5.60
2022-11-12T10:10:18.704Z,5.97
2022-11-12T10:13:01.342Z,5.43
2022-11-12T10:16:00.511Z,5.32
2022-11-12T10:18:46.510Z,5.43
2022-11-12T10:21:27.387Z,5.18
2022-11-12T10:23:57.524Z,5.43
2022-11-12T10:26:29.097Z,5.07
2022-11-12T10:29:05.764Z,5.28
2022-11-12T10:31:38.115Z,4.88
2022-11-12T10:34:21.566Z,4.88
2022-11-12T10:36:55.857Z,4.78
2022-11-12T10:39:37.078Z,4.25
2022-11-12T10:42:10.090Z,5.10
2022-11-12T10:44:40.525Z,4.65
2022-11-12T10:47:26.186Z,4.30
2022-11-12T10:50:18.652Z,4.70
2022-11-12T10:53:00.118Z,4.53
2022-11-12T10:55:32.083Z,4.85
2022-11-12T10:58:09.802Z,4.70
2022-11-12T11:00:40.207Z,4.45
2022-11-12T11:03:24.242Z,4.50
2022-11-12T11:05:57.005Z,4.55
2022-11-12T11:08:42.009Z,4.47
2022-11-12T11:11:22.357Z,4.45
2022-11-12T11:13:55.748Z,4.60
2022-11-12T11:16:28.029Z,4.95
2022-11-12T11:19:02.662Z,5.13
2022-11-12T11:21:55.782Z,4.57
2022-11-12T11:24:45.780Z,4.05
2022-11-12T11:27:27.978Z,4.90
2022-11-12T11:30:12.763Z,4.28
2022-11-12T11:35:44.248Z,4.85
2022-11-12T11:38:35.096Z,4.93
2022-11-12T11:41:19.119Z,4.82
2022-11-12T11:44:00.559Z,4.57
2022-11-12T11:46:58.552Z,4.78
2022-11-12T11:50:04.908Z,5.22
2022-11-12T11:52:48.397Z,5.65
2022-11-12T11:55:31.520Z,5.93
2022-11-12T11:58:10.381Z,7.47
2022-11-12T12:00:51.766Z,8.27
2022-11-12T12:03:29.155Z,5.65
2022-11-12T12:06:22.076Z,5.65
2022-11-12T12:09:17.891Z,5.80
2022-11-12T12:11:57.932Z,5.88
2022-11-12T12:14:44.701Z,6.55
2022-11-12T12:17:30.659Z,6.60
2022-11-12T12:20:11.450Z,6.53
2022-11-12T12:22:47.794Z,5.57
2022-11-12T12:25:24.507Z,5.95
2022-11-12T12:28:02.853Z,6.07
2022-11-12T12:30:37.551Z,6.55
2022-11-12T12:33:18.977Z,7.22
2022-11-12T12:35:56.736Z,7.00
2022-11-12T12:38:34.791Z,7.63
2022-11-12T12:41:17.554Z,8.00
2022-11-12T12:43:51.607Z,6.78
2022-11-12T12:46:25.794Z,6.10
2022-11-12T12:48:57.786Z,6.80
2022-11-12T12:51:30.966Z,6.35
2022-11-12T12:54:00.786Z,6.03
2022-11-12T12:56:49.874Z,6.00
2022-11-12T12:59:23.504Z,7.07
2022-11-12T13:02:01.906Z,7.05
2022-11-12T13:04:54.109Z,6.53
2022-11-12T13:07:44.363Z,6.68
2022-11-12T13:10:53.065Z,7.00
2022-11-12T13:13:39.580Z,7.50
2022-11-12T13:16:10.770Z,6.78
2022-11-12T13:19:02.859Z,6.80
2022-11-12T13:21:33.333Z,6.72
2022-11-12T13:24:11.051Z,6.80
2022-11-12T13:26:52.501Z,6.28
2022-11-12T13:29:46.446Z,6.63
2022-11-12T13:32:40.290Z,7.15
2022-11-12T13:35:23.217Z,7.13
2022-11-12T13:37:54.979Z,7.63
2022-11-12T13:40:35.907Z,8.23
2022-11-12T13:43:15.988Z,7.75
2022-11-12T13:45:51.745Z,7.88
2022-11-12T13:48:29.043Z,8.82
2022-11-12T13:51:04.299Z,8.52
2022-11-12T13:53:35.059Z,8.75
2022-11-12T13:56:05.015Z,9.07
2022-11-12T13:58:36.488Z,8.93
2022-11-12T14:01:10.177Z,8.18
2022-11-12T14:03:47.090Z,8.55
2022-11-12T14:06:34.591Z,9.07
2022-11-12T14:09:18.630Z,8.18
2022-11-12T14:12:11.809Z,9.05
2022-11-12T14:15:07.599Z,9.63
2022-11-12T14:17:47.731Z,9.85
2022-11-12T14:20:27.705Z,9.55
2022-11-12T14:22:57.863Z,11.13
2022-11-12T14:25:29.681Z,10.20
2022-11-12T14:28:00.361Z,10.43
2022-11-12T14:30:32.409Z,10.85
2022-11-12T14:33:12.741Z,10.63
2022-11-12T14:35:43.297Z,10.43
2022-11-12T14:38:21.112Z,10.68
2022-11-12T14:40:55.040Z,11.18
2022-11-12T14:43:37.695Z,9.60
2022-11-12T14:46:09.362Z,10.50
2022-11-12T14:48:53.943Z,10.73
2022-11-12T14:51:24.343Z,11.07
2022-11-12T14:53:58.534Z,11.07
2022-11-12T14:56:36.109Z,11.52
2022-11-12T14:59:07.244Z,11.63
2022-11-12T15:04:40.301Z,11.02
2022-11-12T15:07:25.414Z,10.98
2022-11-12T15:09:55.276Z,12.10
2022-11-12T15:12:27.746Z,11.68
2022-11-12T15:15:09.663Z,11.23
2022-11-12T15:17:40.274Z,12.25
2022-11-12T15:20:17.918Z,10.80
2022-11-12T15:22:52.578Z,11.80
2022-11-12T15:27:53.946Z,10.43
2022-11-12T15:30:26.283Z,11.35
2022-11-12T15:33:11.030Z,11.55
2022-11-12T15:35:44.630Z,13.43
2022-11-12T15:38:27.133Z,14.60
2022-11-12T15:40:59.858Z,13.63
2022-11-12T15:43:31.701Z,13.23
2022-11-12T15:46:01.654Z,13.95
2022-11-12T15:48:31.765Z,13.40
2022-11-12T15:51:04.199Z,13.27
2022-11-12T15:53:34.024Z,12.40
2022-11-12T15:56:04.106Z,12.55
2022-11-12T15:58:36.628Z,13.40
2022-11-12T16:01:07.840Z,13.48
2022-11-12T16:03:37.822Z,15.10
2022-11-12T16:06:13.577Z,13.55
2022-11-12T16:08:43.367Z,15.20
2022-11-12T16:11:34.347Z,15.13
2022-11-12T16:14:04.802Z,15.63
2022-11-12T16:16:35.133Z,15.63
2022-11-12T16:19:05.092Z,16.30
2022-11-12T16:21:37.393Z,19.90
2022-11-12T16:24:07.938Z,17.92
2022-11-12T16:26:38.375Z,17.02
2022-11-12T16:29:14.654Z,17.85
2022-11-12T16:31:45.578Z,18.63
2022-11-12T16:34:15.438Z,17.08
2022-11-12T16:36:49.979Z,18.00
2022-11-12T16:39:19.807Z,17.20
2022-11-12T16:41:49.542Z,17.98
2022-11-12T16:44:19.315Z,16.80
2022-11-12T16:46:49.134Z,17.27
2022-11-12T16:49:19.119Z,17.50
2022-11-12T16:51:51.742Z,17.65
2022-11-12T16:54:21.540Z,17.98
2022-11-12T16:56:51.320Z,18.90
2022-11-12T16:59:21.071Z,17.58
2022-11-12T17:01:50.844Z,17.52
2022-11-12T17:04:21.258Z,18.77
2022-11-12T17:06:53.667Z,18.05
2022-11-12T17:09:23.425Z,17.88
2022-11-12T17:11:53.170Z,18.38
2022-11-12T17:14:27.981Z,18.45
2022-11-12T17:16:58.296Z,17.90
2022-11-12T17:19:28.515Z,17.73
2022-11-12T17:22:00.932Z,18.83
2022-11-12T17:24:31.026Z,19.25
2022-11-12T17:27:01.081Z,18.05
2022-11-12T17:29:31.218Z,18.67
2022-11-12T17:32:00.960Z,18.63
2022-11-12T17:34:30.710Z,20.55
2022-11-12T17:37:03.059Z,18.67
2022-11-12T17:39:32.969Z,20.27
2022-11-12T17:42:02.774Z,21.13
2022-11-12T17:44:32.512Z,20.60
2022-11-12T17:47:03.021Z,19.30
2022-11-12T17:49:32.787Z,20.33
2022-11-12T17:52:05.108Z,20.35
2022-11-12T17:54:35.340Z,21.42
2022-11-12T17:57:05.177Z,19.20
2022-11-12T17:59:34.955Z,20.05
2022-11-12T18:02:04.731Z,20.10
2022-11-12T18:04:34.683Z,21.58
2022-11-12T18:07:07.106Z,20.77
2022-11-12T18:09:36.849Z,20.90
2022-11-12T18:12:07.441Z,22.38
2022-11-12T18:14:37.416Z,21.95
2022-11-12T18:17:07.209Z,19.58
2022-11-12T18:19:37.069Z,20.63
2022-11-12T18:22:09.439Z,20.02
2022-11-12T18:24:39.547Z,19.23
2022-11-12T18:27:09.316Z,20.00
2022-11-12T18:29:40.375Z,20.40
2022-11-12T18:32:10.638Z,19.55
2022-11-12T18:34:44.960Z,19.13
2022-11-12T18:37:17.362Z,18.65
2022-11-12T18:39:47.168Z,19.92
2022-11-12T18:42:16.955Z,21.13
2022-11-12T18:44:46.748Z,20.80
2022-11-12T18:47:16.558Z,20.27
2022-11-12T18:49:46.342Z,21.42
2022-11-12T18:52:18.702Z,20.40
2022-11-12T18:54:48.498Z,22.10
2022-11-12T18:57:18.358Z,21.02
2022-11-12T18:59:48.086Z,21.08
2022-11-12T19:02:18.299Z,21.67
2022-11-12T19:04:48.200Z,22.25
2022-11-12T19:07:20.568Z,23.00
2022-11-12T19:09:50.402Z,22.23
2022-11-12T19:12:20.187Z,22.70
2022-11-12T19:14:49.925Z,25.02
2022-11-12T19:17:19.653Z,25.70
2022-11-12T19:19:49.528Z,24.55
2022-11-12T19:22:21.913Z,25.67
2022-11-12T19:24:51.725Z,24.88
2022-11-12T19:27:21.568Z,23.98
2022-11-12T19:29:51.332Z,26.27
2022-11-12T19:32:21.066Z,25.10
2022-11-12T19:34:50.894Z,25.83
2022-11-12T19:37:38.555Z,25.65
2022-11-12T19:40:10.909Z,25.42
2022-11-12T19:42:40.822Z,26.20
2022-11-12T19:45:11.020Z,25.95
2022-11-12T19:47:40.869Z,24.30
2022-11-12T19:50:11.252Z,25.75
2022-11-12T19:52:43.572Z,25.10
2022-11-12T19:55:13.521Z,23.73
2022-11-12T19:57:46.561Z,24.00
2022-11-12T20:00:17.597Z,25.92
2022-11-12T20:02:47.379Z,24.48
2022-11-12T20:05:17.449Z,24.88
2022-11-12T20:07:50.829Z,25.23
2022-11-12T20:10:21.154Z,27.63
2022-11-12T20:12:50.931Z,29.10
2022-11-12T20:15:20.856Z,30.85
2022-11-12T20:17:50.609Z,32.10
2022-11-12T20:20:20.633Z,31.52
2022-11-12T20:22:52.979Z,30.77
2022-11-12T20:25:22.906Z,31.20
2022-11-12T20:27:52.685Z,30.48
2022-11-12T20:30:22.490Z,28.48
2022-11-12T20:32:52.239Z,27.20
2022-11-12T20:35:22.509Z,30.05
2022-11-12T20:37:55.042Z,31.65
2022-11-12T20:40:24.954Z,33.33
2022-11-12T20:42:54.748Z,33.17
2022-11-12T20:45:24.500Z,30.70
2022-11-12T20:47:54.309Z,32.80
2022-11-12T20:50:24.159Z,30.63
2022-11-12T20:52:56.641Z,31.60
2022-11-12T20:55:26.497Z,30.30
2022-11-12T20:57:56.351Z,32.00
2022-11-12T21:00:26.236Z,30.70
2022-11-12T21:02:56.051Z,27.58
2022-11-12T21:05:26.022Z,31.13
2022-11-12T21:07:59.967Z,32.05
2022-11-12T21:10:29.879Z,38.13
2022-11-12T21:12:59.693Z,34.90
2022-11-12T21:15:29.492Z,35.95
2022-11-12T21:17:59.203Z,40.45
2022-11-12T21:20:28.945Z,46.15
2022-11-12T21:23:02.724Z,47.50
2022-11-12T21:25:32.501Z,46.70
2022-11-12T21:28:02.271Z,37.90
2022-11-12T21:30:32.284Z,41.03
2022-11-12T21:33:02.139Z,44.72
2022-11-12T21:35:31.922Z,46.75
2022-11-12T21:38:04.296Z,47.72
2022-11-12T21:40:34.091Z,46.30
2022-11-12T21:43:03.839Z,48.75
2022-11-12T21:45:33.572Z,50.65
2022-11-12T21:48:03.307Z,75.55
2022-11-12T21:50:33.041Z,70.32
2022-11-12T21:53:05.412Z,65.95
2022-11-12T21:55:35.213Z,60.70
2022-11-12T21:58:04.981Z,58.70
2022-11-12T22:00:42.878Z,59.55
2022-11-12T22:03:12.885Z,62.42
2022-11-12T22:05:42.695Z,52.10
2022-11-12T22:08:15.054Z,57.72
2022-11-12T22:10:44.878Z,60.10
2022-11-12T22:13:29.990Z,63.58
2022-11-12T22:16:00.196Z,47.33
2022-11-12T22:18:30.159Z,48.53
2022-11-12T22:21:00.874Z,49.25
2022-11-12T22:23:36.026Z,51.25
2022-11-12T22:26:06.915Z,55.00
2022-11-12T22:28:37.006Z,50.35
2022-11-12T22:31:07.464Z,44.97
2022-11-12T22:33:37.753Z,49.00
2022-11-12T22:36:10.375Z,47.90
2022-11-12T22:38:44.167Z,40.65
2022-11-12T22:41:15.527Z,39.90
2022-11-12T22:43:45.863Z,43.35
2022-11-12T22:46:17.354Z,40.33
2022-11-12T22:48:47.805Z,49.08
2022-11-12T22:51:19.598Z,41.63
2022-11-12T22:53:56.409Z,47.83
2022-11-12T22:56:27.182Z,49.08
2022-11-12T22:58:57.717Z,55.65
2022-11-12T23:01:29.707Z,46.92
2022-11-12T23:04:01.329Z,37.58
2022-11-12T23:06:32.473Z,54.10
2022-11-12T23:09:04.922Z,45.22
2022-11-12T23:11:34.674Z,59.42
2022-11-12T23:14:04.471Z,58.03
2022-11-12T23:16:35.341Z,49.00
2022-11-12T23:19:05.115Z,42.13
2022-11-12T23:21:34.933Z,39.88
2022-11-12T23:24:10.287Z,60.00
2022-11-12T23:26:40.632Z,37.28
2022-11-12T23:29:10.695Z,38.10
2022-11-12T23:31:41.087Z,36.50
2022-11-12T23:34:12.877Z,43.88
2022-11-12T23:36:42.665Z,36.88
2022-11-12T23:39:15.069Z,35.40
2022-11-12T23:41:44.829Z,36.95
2022-11-12T23:44:14.770Z,45.05
2022-11-12T23:46:44.545Z,36.13
2022-11-12T23:49:14.324Z,43.80
2022-11-12T23:51:44.078Z,41.55
2022-11-12T23:54:16.633Z,37.65
2022-11-12T23:56:46.461Z,35.75
2022-11-12T23:59:16.207Z,35.70
